createdAt,value
2022-12-26T00:05:05.906Z,50.20
2022-12-26T00:08:08.220Z,52.00
2022-12-26T00:11:10.392Z,58.50
2022-12-26T00:14:14.942Z,54.80
2022-12-26T00:17:16.566Z,55.80
2022-12-26T00:20:18.286Z,55.80
2022-12-26T00:23:20.056Z,56.60
2022-12-26T00:26:23.140Z,68.20
2022-12-26T00:29:24.900Z,59.30
2022-12-26T00:32:26.540Z,55.10
2022-12-26T00:35:28.240Z,57.60
2022-12-26T00:38:30.056Z,57.30
2022-12-26T00:41:31.854Z,56.30
2022-12-26T00:44:33.546Z,57.40
2022-12-26T00:50:36.889Z,40.40
2022-12-26T00:56:40.423Z,47.70
2022-12-26T01:02:43.668Z,58.50
2022-12-26T01:05:50.466Z,54.30
2022-12-26T01:08:53.474Z,47.10
2022-12-26T01:11:55.097Z,41.80
2022-12-26T01:15:00.036Z,42.90
2022-12-26T01:18:05.540Z,43.90
2022-12-26T01:21:09.844Z,41.80
2022-12-26T01:24:11.754Z,42.30
2022-12-26T01:27:13.531Z,40.50
2022-12-26T01:33:16.697Z,38.10
2022-12-26T01:36:18.778Z,39.00
2022-12-26T01:39:21.179Z,40.70
2022-12-26T01:42:25.059Z,38.20
2022-12-26T01:45:31.509Z,36.90
2022-12-26T01:48:35.683Z,34.90
2022-12-26T01:51:40.386Z,36.40
2022-12-26T01:54:44.503Z,36.20
2022-12-26T01:57:54.964Z,33.10
2022-12-26T02:00:56.692Z,31.00
2022-12-26T02:04:20.479Z,33.30
2022-12-26T02:07:23.344Z,36.40
2022-12-26T02:10:28.010Z,34.80
2022-12-26T02:13:30.863Z,32.30
2022-12-26T02:16:33.341Z,30.50
2022-12-26T02:19:50.136Z,30.00
2022-12-26T02:23:10.616Z,28.70
2022-12-26T02:26:27.061Z,27.60
2022-12-26T02:29:57.021Z,28.30
2022-12-26T02:33:14.322Z,29.00
2022-12-26T02:36:43.446Z,31.60
2022-12-26T02:40:09.396Z,27.10
2022-12-26T02:43:27.123Z,28.50
2022-12-26T02:46:52.122Z,26.70
2022-12-26T02:50:21.921Z,28.00
2022-12-26T02:53:54.392Z,23.50
2022-12-26T02:57:23.171Z,22.40
2022-12-26T03:00:43.416Z,20.60
2022-12-26T03:04:04.860Z,18.80
2022-12-26T03:07:31.915Z,22.30
2022-12-26T03:10:54.027Z,21.10
2022-12-26T03:17:21.817Z,21.10
2022-12-26T03:20:23.756Z,23.90
2022-12-26T03:23:26.081Z,23.80
2022-12-26T03:26:41.242Z,20.90
2022-12-26T03:30:01.517Z,19.50
2022-12-26T03:33:03.485Z,21.40
2022-12-26T03:36:06.483Z,19.10
2022-12-26T03:39:13.923Z,19.10
2022-12-26T03:43:03.875Z,17.50
2022-12-26T03:46:36.854Z,19.20
2022-12-26T03:50:04.157Z,18.40
2022-12-26T03:53:32.156Z,17.80
2022-12-26T03:56:57.191Z,17.90
2022-12-26T04:00:23.022Z,18.10
2022-12-26T04:03:44.593Z,19.30
2022-12-26T04:07:22.538Z,20.10
2022-12-26T04:10:50.854Z,21.90
2022-12-26T04:14:32.456Z,22.40
2022-12-26T04:18:09.552Z,22.90
2022-12-26T04:21:36.811Z,23.20
2022-12-26T04:25:04.394Z,21.60
2022-12-26T04:28:24.889Z,17.80
2022-12-26T04:32:13.211Z,17.80
2022-12-26T04:36:02.116Z,16.70
2022-12-26T04:39:25.075Z,16.30
2022-12-26T04:42:46.735Z,16.40
2022-12-26T04:45:49.093Z,16.30
2022-12-26T04:49:11.186Z,17.90
2022-12-26T04:52:14.790Z,16.90
2022-12-26T04:55:17.800Z,17.90
2022-12-26T04:58:19.587Z,18.10
2022-12-26T05:01:40.374Z,21.10
2022-12-26T05:05:01.260Z,16.10
2022-12-26T05:08:22.099Z,14.40
2022-12-26T05:11:24.600Z,14.60
2022-12-26T05:14:26.490Z,13.20
2022-12-26T05:21:07.220Z,13.50
2022-12-26T05:24:29.045Z,13.90
2022-12-26T05:27:57.788Z,14.30
2022-12-26T05:31:00.003Z,16.20
2022-12-26T05:34:08.004Z,14.90
2022-12-26T05:37:09.793Z,15.10
2022-12-26T05:43:13.519Z,14.50
2022-12-26T05:49:17.361Z,16.20
2022-12-26T05:52:19.235Z,16.50
2022-12-26T05:58:22.698Z,19.50
2022-12-26T06:04:27.210Z,19.30
2022-12-26T06:07:28.868Z,21.30
2022-12-26T06:10:30.598Z,22.50
2022-12-26T06:13:32.520Z,23.00
2022-12-26T06:19:38.902Z,24.50
2022-12-26T06:22:43.661Z,23.20
2022-12-26T06:25:45.333Z,26.40
2022-12-26T06:31:49.569Z,27.50
2022-12-26T06:37:53.157Z,43.30
2022-12-26T06:40:54.784Z,39.10
2022-12-26T06:43:56.421Z,36.60
2022-12-26T06:46:58.247Z,38.50
2022-12-26T06:49:59.908Z,38.60
2022-12-26T06:53:01.575Z,40.40
2022-12-26T06:59:12.309Z,44.90
2022-12-26T07:05:15.773Z,44.60
2022-12-26T07:08:17.418Z,42.70
2022-12-26T07:11:22.433Z,43.70
2022-12-26T07:14:24.227Z,42.20
2022-12-26T07:20:27.573Z,40.40
2022-12-26T07:23:31.050Z,42.00
2022-12-26T07:26:32.800Z,42.40
2022-12-26T07:32:36.212Z,42.10
2022-12-26T07:38:39.675Z,43.70
2022-12-26T07:45:01.444Z,37.50
2022-12-26T07:51:05.352Z,32.20
2022-12-26T07:54:11.157Z,36.80
2022-12-26T07:57:46.719Z,35.30
2022-12-26T08:00:35.203Z,36.10
2022-12-26T08:06:39.163Z,47.40
2022-12-26T08:09:43.196Z,58.40
2022-12-26T08:12:45.040Z,66.30
2022-12-26T08:18:48.644Z,41.70
2022-12-26T08:21:50.468Z,42.00
2022-12-26T08:24:52.148Z,44.60
2022-12-26T08:30:55.694Z,38.20
2022-12-26T08:33:57.869Z,41.70
2022-12-26T08:36:59.617Z,42.20
2022-12-26T08:40:01.333Z,39.70
2022-12-26T08:46:24.992Z,47.20
2022-12-26T08:49:26.823Z,58.20
2022-12-26T08:52:28.671Z,44.00
2022-12-26T08:55:30.468Z,38.00
2022-12-26T09:01:34.089Z,37.20
2022-12-26T09:04:35.999Z,38.00
2022-12-26T09:10:39.831Z,37.50
2022-12-26T09:13:43.020Z,37.60
2022-12-26T09:16:50.387Z,41.40
2022-12-26T09:19:53.631Z,44.00
2022-12-26T09:22:55.587Z,42.80
2022-12-26T09:26:07.988Z,44.20
2022-12-26T09:29:11.773Z,47.50
2022-12-26T09:32:13.483Z,46.20
2022-12-26T09:38:16.895Z,52.50
2022-12-26T09:44:59.744Z,55.10
2022-12-26T09:48:16.025Z,42.90
2022-12-26T09:51:17.779Z,38.50
2022-12-26T09:57:46.727Z,38.80
2022-12-26T10:01:06.484Z,40.90
2022-12-26T10:04:16.243Z,41.20
2022-12-26T10:07:39.446Z,39.60
2022-12-26T10:10:45.916Z,37.90
2022-12-26T10:13:56.793Z,35.40
2022-12-26T10:17:19.087Z,36.30
2022-12-26T10:20:30.178Z,35.70
2022-12-26T10:23:39.941Z,35.70
2022-12-26T10:26:46.144Z,34.60
2022-12-26T10:29:54.312Z,34.50
2022-12-26T10:33:01.116Z,36.30
2022-12-26T10:36:03.340Z,34.30
2022-12-26T10:39:11.274Z,37.20
2022-12-26T10:42:37.098Z,34.50
2022-12-26T10:45:45.451Z,36.80
2022-12-26T10:48:48.496Z,37.70
2022-12-26T10:51:51.779Z,37.00
2022-12-26T10:55:27.977Z,37.00
2022-12-26T10:58:24.210Z,35.20
2022-12-26T11:01:35.130Z,35.10
2022-12-26T11:05:11.259Z,34.80
2022-12-26T11:11:12.474Z,31.30
2022-12-26T11:14:33.723Z,31.50
2022-12-26T11:17:42.010Z,29.80
2022-12-26T11:20:44.572Z,30.80
2022-12-26T11:23:47.982Z,28.90
2022-12-26T11:26:49.785Z,29.50
2022-12-26T11:29:51.417Z,29.80
2022-12-26T11:33:18.721Z,28.00
2022-12-26T11:36:26.114Z,34.30
2022-12-26T11:39:32.727Z,33.00
2022-12-26T11:42:34.564Z,31.60
2022-12-26T11:45:42.845Z,31.00
2022-12-26T11:48:49.280Z,29.70
2022-12-26T11:51:58.781Z,30.10
2022-12-26T11:55:01.902Z,27.80
2022-12-26T11:58:07.002Z,28.80
2022-12-26T12:01:13.173Z,27.60
2022-12-26T12:04:15.219Z,27.30
2022-12-26T12:07:43.270Z,26.60
2022-12-26T12:11:04.199Z,25.50
2022-12-26T12:14:19.747Z,23.20
2022-12-26T12:17:31.706Z,15.40
2022-12-26T12:20:41.383Z,12.90
2022-12-26T12:24:14.325Z,11.20
2022-12-26T12:27:34.504Z,9.80
2022-12-26T12:30:47.472Z,10.40
2022-12-26T12:33:53.707Z,10.00
2022-12-26T12:37:30.705Z,9.80
2022-12-26T12:40:42.471Z,9.50
2022-12-26T12:44:08.328Z,9.30
2022-12-26T12:47:19.006Z,9.80
2022-12-26T12:50:36.523Z,9.40
2022-12-26T12:53:56.678Z,9.40
2022-12-26T12:57:23.510Z,9.40
2022-12-26T13:00:28.936Z,9.60
2022-12-26T13:03:36.606Z,9.50
2022-12-26T13:06:45.969Z,10.00
2022-12-26T13:10:13.739Z,9.50
2022-12-26T13:13:30.534Z,9.90
2022-12-26T13:16:43.534Z,9.70
2022-12-26T13:20:02.670Z,9.40
2022-12-26T13:23:29.173Z,9.70
2022-12-26T13:26:47.612Z,9.50
2022-12-26T13:29:50.432Z,9.40
2022-12-26T13:32:56.218Z,10.20
2022-12-26T13:36:01.269Z,11.60
2022-12-26T13:39:12.165Z,11.00
2022-12-26T13:42:32.728Z,10.20
2022-12-26T13:45:37.146Z,17.40
2022-12-26T13:48:39.039Z,17.00
2022-12-26T13:51:43.898Z,15.20
2022-12-26T13:54:48.637Z,15.70
2022-12-26T13:58:13.973Z,13.70
2022-12-26T14:02:02.875Z,13.90
2022-12-26T14:05:35.354Z,19.50
2022-12-26T14:08:36.942Z,20.10
2022-12-26T14:12:04.382Z,20.60
2022-12-26T14:15:36.987Z,19.10
2022-12-26T14:18:42.460Z,26.60
2022-12-26T14:22:06.136Z,19.40
2022-12-26T14:25:17.053Z,15.80
2022-12-26T14:28:31.450Z,13.70
2022-12-26T14:31:45.529Z,15.00
2022-12-26T14:35:25.895Z,16.40
2022-12-26T14:38:58.944Z,23.60
2022-12-26T14:42:25.600Z,15.10
2022-12-26T14:45:30.278Z,13.40
2022-12-26T14:48:31.909Z,12.60
2022-12-26T14:51:36.696Z,11.50
2022-12-26T14:54:39.840Z,12.60
2022-12-26T14:57:46.344Z,17.40
2022-12-26T15:00:48.386Z,17.70
2022-12-26T15:04:21.139Z,24.80
2022-12-26T15:07:53.239Z,24.80
2022-12-26T15:11:19.725Z,20.70
2022-12-26T15:14:40.215Z,20.70
2022-12-26T15:17:48.477Z,25.40
2022-12-26T15:21:12.418Z,29.40
2022-12-26T15:25:16.848Z,31.30
2022-12-26T15:28:15.601Z,32.60
2022-12-26T15:31:23.876Z,36.10
2022-12-26T15:35:11.229Z,32.90
2022-12-26T15:38:20.996Z,39.60
2022-12-26T15:41:48.641Z,37.20
2022-12-26T15:45:16.682Z,36.00
2022-12-26T15:48:27.273Z,39.80
2022-12-26T15:51:55.565Z,40.00
2022-12-26T15:55:04.108Z,39.40
2022-12-26T15:58:23.074Z,40.90
2022-12-26T16:01:45.717Z,45.10
2022-12-26T16:04:50.078Z,42.90
2022-12-26T16:08:04.353Z,39.30
2022-12-26T16:11:25.830Z,38.70
2022-12-26T16:14:36.569Z,42.10
2022-12-26T16:17:39.692Z,47.40
2022-12-26T16:21:01.087Z,40.60
2022-12-26T16:24:02.912Z,42.10
2022-12-26T16:27:07.519Z,47.30
2022-12-26T16:30:20.149Z,46.60
2022-12-26T16:33:21.897Z,43.20
2022-12-26T16:36:28.396Z,54.10
2022-12-26T16:39:30.299Z,47.70
2022-12-26T16:42:32.665Z,42.70
2022-12-26T16:45:37.324Z,36.90
2022-12-26T16:48:40.294Z,37.50
2022-12-26T16:51:47.477Z,35.50
2022-12-26T16:54:49.207Z,38.20
2022-12-26T16:57:53.143Z,52.90
2022-12-26T17:01:00.664Z,53.80
2022-12-26T17:04:05.203Z,48.10
2022-12-26T17:07:08.498Z,46.60
2022-12-26T17:10:19.731Z,51.80
2022-12-26T17:13:25.181Z,57.70
2022-12-26T17:16:29.381Z,59.70
2022-12-26T17:19:33.316Z,58.80
2022-12-26T17:22:36.776Z,59.70
2022-12-26T17:25:38.409Z,47.50
2022-12-26T17:31:44.060Z,45.40
2022-12-26T17:34:45.724Z,52.90
2022-12-26T17:40:53.564Z,59.60
2022-12-26T17:43:57.739Z,62.70
2022-12-26T17:47:02.739Z,63.70
2022-12-26T17:50:04.785Z,65.70
2022-12-26T17:53:27.195Z,67.40
2022-12-26T17:56:28.833Z,63.30
2022-12-26T18:02:32.076Z,69.30
2022-12-26T18:05:35.715Z,62.40
2022-12-26T18:08:42.656Z,43.20
2022-12-26T18:11:44.273Z,25.20
2022-12-26T18:20:50.495Z,14.40
2022-12-26T18:23:52.665Z,13.70
2022-12-26T18:26:54.584Z,13.80
2022-12-26T18:29:56.928Z,14.80
2022-12-26T18:32:58.659Z,13.10
2022-12-26T18:36:05.826Z,14.10
2022-12-26T18:39:14.906Z,12.10
2022-12-26T18:42:17.788Z,12.40
2022-12-26T18:45:19.403Z,11.80
2022-12-26T18:51:23.657Z,11.90
2022-12-26T18:54:25.456Z,11.20
2022-12-26T18:57:27.097Z,11.70
2022-12-26T19:03:31.171Z,13.00
2022-12-26T19:06:35.312Z,13.60
2022-12-26T19:09:37.325Z,14.40
2022-12-26T19:12:39.659Z,15.30
2022-12-26T19:15:46.772Z,14.10
2022-12-26T19:18:49.072Z,15.70
2022-12-26T19:21:50.759Z,15.40
2022-12-26T19:24:53.578Z,14.00
2022-12-26T19:27:55.858Z,14.50
2022-12-26T19:30:57.596Z,14.90
2022-12-26T19:33:59.325Z,14.40
2022-12-26T19:40:04.373Z,16.70
2022-12-26T19:43:06.012Z,15.90
2022-12-26T19:46:12.781Z,16.60
2022-12-26T19:49:14.795Z,16.90
2022-12-26T19:52:16.689Z,15.50
2022-12-26T19:55:18.712Z,16.90
2022-12-26T19:58:20.467Z,17.60
2022-12-26T20:01:30.457Z,18.40
2022-12-26T20:04:32.222Z,17.10
2022-12-26T20:07:34.022Z,17.30
2022-12-26T20:10:35.824Z,16.80
2022-12-26T20:13:37.706Z,17.60
2022-12-26T20:17:04.977Z,16.60
2022-12-26T20:20:01.415Z,17.60
2022-12-26T20:23:03.144Z,18.90
2022-12-26T20:26:07.901Z,19.60
2022-12-26T20:29:09.781Z,20.00
2022-12-26T20:32:11.705Z,20.20
2022-12-26T20:35:14.185Z,23.10
2022-12-26T20:38:15.831Z,25.10
2022-12-26T20:44:19.750Z,27.90
2022-12-26T20:47:21.402Z,28.10
2022-12-26T20:50:23.450Z,26.80
2022-12-26T20:53:25.562Z,30.10
2022-12-26T20:56:27.437Z,27.30
2022-12-26T20:59:29.504Z,28.60
2022-12-26T21:02:31.221Z,27.80
2022-12-26T21:05:33.174Z,27.10
2022-12-26T21:08:35.992Z,28.40
2022-12-26T21:11:39.383Z,29.30
2022-12-26T21:14:42.243Z,27.90
2022-12-26T21:17:44.045Z,28.40
2022-12-26T21:20:45.783Z,27.80
2022-12-26T21:23:48.293Z,27.70
2022-12-26T21:26:50.072Z,26.50
2022-12-26T21:29:51.781Z,24.70
2022-12-26T21:32:53.744Z,25.60
2022-12-26T21:35:55.834Z,26.40
2022-12-26T21:38:57.887Z,21.90
2022-12-26T21:42:00.485Z,23.20
2022-12-26T21:45:02.273Z,24.70
2022-12-26T21:48:04.050Z,24.50
2022-12-26T21:51:09.468Z,24.40
2022-12-26T21:54:29.889Z,23.80
2022-12-26T21:57:35.283Z,22.30
2022-12-26T22:00:37.235Z,22.60
2022-12-26T22:03:57.641Z,22.50
2022-12-26T22:06:59.245Z,23.30
2022-12-26T22:19:09.513Z,17.60
2022-12-26T22:22:11.200Z,16.60
2022-12-26T22:25:12.980Z,17.00
2022-12-26T22:28:16.526Z,17.20
2022-12-26T22:31:26.779Z,16.60
2022-12-26T22:34:28.627Z,16.80
2022-12-26T22:40:32.037Z,17.20
2022-12-26T22:43:34.001Z,18.00
2022-12-26T22:46:36.910Z,16.80
2022-12-26T22:49:38.725Z,17.10
2022-12-26T22:55:49.773Z,21.30
2022-12-26T22:58:55.935Z,23.90
2022-12-26T23:01:57.628Z,21.00
2022-12-26T23:04:59.638Z,20.80
2022-12-26T23:08:01.656Z,19.90
2022-12-26T23:11:03.593Z,19.60
2022-12-26T23:14:07.739Z,20.30
2022-12-26T23:17:33.652Z,21.10
2022-12-26T23:20:56.054Z,20.10
2022-12-26T23:23:57.708Z,20.40
2022-12-26T23:27:21.504Z,20.10
2022-12-26T23:30:23.763Z,21.40
2022-12-26T23:33:25.726Z,20.20
2022-12-26T23:36:27.381Z,20.80
2022-12-26T23:39:29.882Z,20.70
2022-12-26T23:42:31.800Z,20.00
2022-12-26T23:45:33.550Z,19.90
2022-12-26T23:48:35.398Z,20.70
2022-12-26T23:51:37.189Z,19.30
2022-12-26T23:54:38.829Z,19.20
